Rio Vista, Texas
Current Conditions -  °F | °C
As of 3:15 PM on Tuesday 21 Oct 2014 (Local Time) from KCPT Reporting Station
Clear Clear  
Wind Chill: 81°   Ceiling: Unl
Heat Index: 81°   Visibility: 10mi
Dew Point: 54°   Wind: 3mph
Humidity: 39%   Direction: 100°E
Pressure: 30.04"   Gusts: NA
Location:  32.23°N, 97.37°W
Report Text: KCPT 212015Z AUTO 10003KT 10SM CLR 27/12 A3004 RMK AO2
Loading
Personal Weather Stations






























Interactive Weather Map
Tropical Storm Tracking
New forecast layout! Learn more

10-Day Weather Forecast

Advertisements
Track Severe Weather on mobile